Time;durP1;ratioP1;P1;durP2;ratioP2;P2;SDS_P1;SDS_P2;PMS_P1;PMS_P2;Temp;Humidity;BMP_temperature;BMP_pressure;BME280_temperature;BME280_humidity;BME280_pressure;Samples;Min_cycle;Max_cycle;Signal;HPM_P1;HPM_P2
2022/11/22 00:02:09;;;;;;;;;;;4.40;89.60;;;;;;5037089;28;19921;-75
2022/11/22 00:04:34;;;;;;;;;;;4.40;89.60;;;;;;5022872;28;20018;-77
2022/11/22 00:06:59;;;;;;;;;;;4.50;89.60;;;;;;5037168;28;19933;-76
2022/11/22 00:09:25;;;;;;;;;;;4.50;89.70;;;;;;5042539;28;19921;-76
2022/11/22 00:11:50;;;;;;;;;;;4.40;89.60;;;;;;5039922;28;20648;-76
2022/11/22 00:14:16;;;;;;;;;;;4.50;89.60;;;;;;5039219;28;19943;-76
2022/11/22 00:16:41;;;;;;;;;;;4.50;89.60;;;;;;5025166;28;19924;-77
2022/11/22 00:19:07;;;;;;;;;;;4.50;89.60;;;;;;5044807;28;19964;-76
2022/11/22 00:21:33;;;;;;;;;;;4.50;89.60;;;;;;5017964;28;19925;-77
2022/11/22 00:23:58;;;;;;;;;;;4.50;89.60;;;;;;5037064;28;19983;-76
2022/11/22 00:26:24;;;;;;;;;;;4.50;89.60;;;;;;5040253;28;20290;-77
2022/11/22 00:28:49;;;;;;;;;;;4.50;89.60;;;;;;5038106;28;19932;-76
2022/11/22 00:31:15;;;;;;;;;;;4.50;89.60;;;;;;5037867;28;19924;-76
2022/11/22 00:33:40;;;;;;;;;;;4.50;89.60;;;;;;5020389;28;19950;-75
2022/11/22 00:36:06;;;;;;;;;;;4.50;89.60;;;;;;5006023;28;20401;-76
2022/11/22 00:38:31;;;;;;;;;;;4.50;89.60;;;;;;5007017;28;19920;-76
2022/11/22 00:40:57;;;;;;;;;;;4.50;89.60;;;;;;5008350;28;20015;-76
2022/11/22 00:43:22;;;;;;;;;;;4.60;89.60;;;;;;5020970;28;19925;-77
2022/11/22 00:45:47;;;;;;;;;;;4.60;89.60;;;;;;4999853;28;19921;-77
2022/11/22 00:48:13;;;;;;;;;;;4.60;89.70;;;;;;5004540;28;20257;-77
2022/11/22 00:50:38;;;;;;;;;;;4.50;89.50;;;;;;5038910;28;19917;-76
2022/11/22 00:53:04;;;;;;;;;;;4.60;89.60;;;;;;5021940;28;19927;-77
2022/11/22 00:55:29;;;;;;;;;;;4.60;89.60;;;;;;5005702;28;20409;-77
2022/11/22 00:57:55;;;;;;;;;;;4.50;89.60;;;;;;5037548;28;19952;-77
2022/11/22 01:00:20;;;;;;;;;;;4.60;89.60;;;;;;5011054;28;20348;-77
2022/11/22 01:02:46;;;;;;;;;;;4.60;89.60;;;;;;5007099;28;19947;-76
2022/11/22 01:05:11;;;;;;;;;;;4.60;89.60;;;;;;5006678;28;19932;-77
2022/11/22 01:07:37;;;;;;;;;;;4.60;89.60;;;;;;5004526;28;19917;-76
2022/11/22 01:10:03;;;;;;;;;;;4.60;89.60;;;;;;5021284;28;19917;-77
2022/11/22 01:12:28;;;;;;;;;;;4.60;89.60;;;;;;5022969;28;19929;-77
2022/11/22 01:14:53;;;;;;;;;;;4.60;89.60;;;;;;5016996;28;19921;-77
2022/11/22 01:17:19;;;;;;;;;;;4.60;89.60;;;;;;5019714;28;19996;-77
2022/11/22 01:19:44;;;;;;;;;;;4.60;89.60;;;;;;5009278;28;19932;-78
2022/11/22 01:22:10;;;;;;;;;;;4.60;89.60;;;;;;5022590;28;19928;-76
2022/11/22 01:24:35;;;;;;;;;;;4.70;89.60;;;;;;5012480;28;20040;-77
2022/11/22 01:27:01;;;;;;;;;;;4.70;89.60;;;;;;4990317;28;19925;-77
2022/11/22 01:29:26;;;;;;;;;;;4.70;89.60;;;;;;4996715;28;20385;-77
2022/11/22 01:31:52;;;;;;;;;;;4.70;89.60;;;;;;5025271;28;19951;-76
2022/11/22 01:34:17;;;;;;;;;;;4.70;89.60;;;;;;5020579;28;19963;-78
2022/11/22 01:36:43;;;;;;;;;;;4.70;89.60;;;;;;5035978;28;19928;-77
2022/11/22 01:39:08;;;;;;;;;;;4.70;89.50;;;;;;5038366;28;19917;-76
2022/11/22 01:41:34;;;;;;;;;;;4.70;89.50;;;;;;5056473;28;19925;-77
2022/11/22 01:44:18;;;;;;;;;;;4.70;89.50;;;;;;5038506;28;20473;-76
2022/11/22 01:46:44;;;;;;;;;;;4.70;89.50;;;;;;5029758;28;19932;-77
2022/11/22 01:49:13;;;;;;;;;;;4.70;89.60;;;;;;5042906;28;19920;-76
2022/11/22 01:51:39;;;;;;;;;;;4.70;89.60;;;;;;5025495;28;19912;-76
2022/11/22 01:54:08;;;;;;;;;;;4.70;89.50;;;;;;5032390;28;19947;-77
2022/11/22 01:56:34;;;;;;;;;;;4.70;89.50;;;;;;5036331;28;19928;-78
2022/11/22 01:59:02;;;;;;;;;;;4.70;89.50;;;;;;5038676;28;19925;-76
2022/11/22 02:01:27;;;;;;;;;;;4.70;89.50;;;;;;5022465;28;20043;-76
2022/11/22 02:03:53;;;;;;;;;;;4.70;89.50;;;;;;5039299;28;19967;-76
2022/11/22 02:06:18;;;;;;;;;;;4.70;89.50;;;;;;5032972;28;20531;-76
2022/11/22 02:08:49;;;;;;;;;;;4.70;89.50;;;;;;5034377;28;19920;-77
2022/11/22 02:11:15;;;;;;;;;;;4.70;89.50;;;;;;5036581;28;19921;-76
2022/11/22 02:13:41;;;;;;;;;;;4.70;89.50;;;;;;5023917;28;19988;-77
2022/11/22 02:16:06;;;;;;;;;;;4.80;89.60;;;;;;5040183;28;19963;-77
2022/11/22 02:18:35;;;;;;;;;;;4.70;89.60;;;;;;5021682;28;20036;-77
2022/11/22 02:21:00;;;;;;;;;;;4.70;90.10;;;;;;5014812;28;20047;-77
2022/11/22 02:23:29;;;;;;;;;;;4.70;89.50;;;;;;5035082;28;20018;-76
2022/11/22 02:25:55;;;;;;;;;;;4.70;89.50;;;;;;5035619;28;20012;-77
2022/11/22 02:28:20;;;;;;;;;;;4.80;89.60;;;;;;5036543;28;19917;-77
2022/11/22 02:30:46;;;;;;;;;;;4.80;89.60;;;;;;5020626;28;19928;-76
2022/11/22 02:33:11;;;;;;;;;;;4.80;89.60;;;;;;5058361;28;19993;-77
2022/11/22 02:35:37;;;;;;;;;;;4.80;89.60;;;;;;5022204;28;19974;-77
2022/11/22 02:38:03;;;;;;;;;;;4.80;89.60;;;;;;5033044;28;20010;-76
2022/11/22 02:40:30;;;;;;;;;;;4.80;89.60;;;;;;5025786;28;19936;-77
2022/11/22 02:43:02;;;;;;;;;;;4.80;89.60;;;;;;5032324;28;20359;-77
2022/11/22 02:45:27;;;;;;;;;;;4.90;89.60;;;;;;5037199;28;19925;-77
2022/11/22 02:47:53;;;;;;;;;;;4.90;89.60;;;;;;5024847;28;20008;-77
2022/11/22 02:50:18;;;;;;;;;;;4.90;89.60;;;;;;5025601;28;19959;-77
2022/11/22 02:52:44;;;;;;;;;;;4.90;89.60;;;;;;5022288;28;19925;-77
2022/11/22 02:55:09;;;;;;;;;;;4.90;89.60;;;;;;5037549;28;19995;-75
2022/11/22 02:57:35;;;;;;;;;;;4.90;89.50;;;;;;5039199;28;20498;-76
2022/11/22 03:00:00;;;;;;;;;;;4.90;89.50;;;;;;5020615;28;19931;-78
2022/11/22 03:02:26;;;;;;;;;;;4.90;89.50;;;;;;5010657;28;19955;-77
2022/11/22 03:04:51;;;;;;;;;;;5.00;89.50;;;;;;5037767;28;19960;-76
2022/11/22 03:07:17;;;;;;;;;;;5.00;89.50;;;;;;5033836;28;19925;-77
2022/11/22 03:09:42;;;;;;;;;;;5.00;89.50;;;;;;5031762;28;19927;-77
2022/11/22 03:12:08;;;;;;;;;;;5.00;89.50;;;;;;5023279;28;19927;-76
2022/11/22 03:14:33;;;;;;;;;;;5.00;89.50;;;;;;5039403;28;19925;-77
2022/11/22 03:16:59;;;;;;;;;;;5.00;89.50;;;;;;5036080;28;19925;-76
2022/11/22 03:19:24;;;;;;;;;;;5.00;89.50;;;;;;5037676;28;19924;-77
2022/11/22 03:21:50;;;;;;;;;;;5.00;89.50;;;;;;5016443;28;20594;-78
2022/11/22 03:24:15;;;;;;;;;;;5.00;89.50;;;;;;5022617;28;19924;-77
2022/11/22 03:26:41;;;;;;;;;;;5.00;89.50;;;;;;5035183;28;19923;-77
2022/11/22 03:29:07;;;;;;;;;;;5.00;89.50;;;;;;5038363;28;19917;-77
2022/11/22 03:31:32;;;;;;;;;;;5.00;89.50;;;;;;5032589;28;20393;-77
2022/11/22 03:33:58;;;;;;;;;;;5.00;89.50;;;;;;5018389;28;19960;-77
2022/11/22 03:36:23;;;;;;;;;;;5.10;89.50;;;;;;5031625;28;19925;-77
2022/11/22 03:38:49;;;;;;;;;;;5.10;89.60;;;;;;5036943;28;20340;-77
2022/11/22 03:41:14;;;;;;;;;;;5.10;89.50;;;;;;5044259;28;20331;-76
2022/11/22 03:43:40;;;;;;;;;;;5.10;89.50;;;;;;5030452;28;19924;-76
2022/11/22 03:46:05;;;;;;;;;;;5.10;89.60;;;;;;5045967;28;20422;-76
2022/11/22 03:48:31;;;;;;;;;;;5.10;89.50;;;;;;5041617;28;19921;-76
2022/11/22 03:51:03;;;;;;;;;;;5.10;89.50;;;;;;5039853;28;19916;-76
2022/11/22 03:53:29;;;;;;;;;;;5.10;89.50;;;;;;5037435;28;20060;-77
2022/11/22 03:55:54;;;;;;;;;;;5.10;89.60;;;;;;5041226;28;20022;-77
2022/11/22 03:58:19;;;;;;;;;;;5.10;89.50;;;;;;5045211;28;19916;-76
2022/11/22 04:00:45;;;;;;;;;;;5.10;89.50;;;;;;5024157;28;20582;-76
2022/11/22 04:03:10;;;;;;;;;;;5.20;89.60;;;;;;5041377;28;19917;-76
2022/11/22 04:05:36;;;;;;;;;;;5.20;89.60;;;;;;5016814;28;19925;-76
2022/11/22 04:08:01;;;;;;;;;;;5.20;89.60;;;;;;5039406;28;19917;-75
2022/11/22 04:10:27;;;;;;;;;;;5.20;89.50;;;;;;5043906;28;19936;-76
2022/11/22 04:12:56;;;;;;;;;;;5.20;89.50;;;;;;5031527;28;19923;-76
2022/11/22 04:15:21;;;;;;;;;;;5.20;89.50;;;;;;5038185;28;19917;-75
2022/11/22 04:17:47;;;;;;;;;;;5.20;89.50;;;;;;5057739;28;20170;-77
2022/11/22 04:23:04;;;;;;;;;;;5.20;89.70;;;;;;5040876;28;19933;-77
2022/11/22 04:25:30;;;;;;;;;;;5.30;89.50;;;;;;5025713;28;20068;-76
2022/11/22 04:27:55;;;;;;;;;;;5.30;89.50;;;;;;5027833;28;19995;-77
2022/11/22 04:32:44;;;;;;;;;;;5.30;89.50;;;;;;5037082;28;20583;-76
2022/11/22 04:33:06;;;;;;;;;;;5.30;89.50;;;;;;5038221;28;19929;-76
2022/11/22 04:35:32;;;;;;;;;;;5.30;89.50;;;;;;5038994;28;19927;-75
2022/11/22 04:37:57;;;;;;;;;;;5.30;89.50;;;;;;5044532;28;19928;-76
2022/11/22 04:40:23;;;;;;;;;;;5.30;89.50;;;;;;5043129;28;19921;-76
2022/11/22 04:45:32;;;;;;;;;;;5.30;89.50;;;;;;5045810;28;20456;-75
2022/11/22 04:47:58;;;;;;;;;;;5.30;89.50;;;;;;5018773;28;19956;-76
2022/11/22 04:53:07;;;;;;;;;;;5.30;89.50;;;;;;5039505;28;19933;-76
2022/11/22 04:55:33;;;;;;;;;;;5.30;89.50;;;;;;5026625;28;19921;-76
2022/11/22 04:57:58;;;;;;;;;;;5.30;89.50;;;;;;5024388;28;20014;-76
2022/11/22 05:00:26;;;;;;;;;;;5.30;89.40;;;;;;5048663;28;19931;-76
2022/11/22 05:02:51;;;;;;;;;;;5.30;89.50;;;;;;5043576;28;19956;-75
2022/11/22 05:05:17;;;;;;;;;;;5.30;89.50;;;;;;5049419;28;20319;-76
2022/11/22 05:07:42;;;;;;;;;;;5.30;89.40;;;;;;5029000;28;19913;-76
2022/11/22 05:10:08;;;;;;;;;;;5.40;89.50;;;;;;5037467;28;19965;-75
2022/11/22 05:12:33;;;;;;;;;;;5.30;89.40;;;;;;5038822;28;19944;-75
2022/11/22 05:14:59;;;;;;;;;;;5.30;89.40;;;;;;5041326;28;20012;-76
2022/11/22 05:17:24;;;;;;;;;;;5.30;89.50;;;;;;5037029;28;19979;-76
2022/11/22 05:19:50;;;;;;;;;;;5.40;89.50;;;;;;5046297;28;19958;-76
2022/11/22 05:22:15;;;;;;;;;;;5.30;89.50;;;;;;5045731;28;19909;-76
2022/11/22 05:24:41;;;;;;;;;;;5.30;89.50;;;;;;5045453;28;19917;-76
2022/11/22 05:27:06;;;;;;;;;;;5.40;89.50;;;;;;5050009;28;19917;-76
2022/11/22 05:29:32;;;;;;;;;;;5.30;89.40;;;;;;5036932;28;19924;-76
2022/11/22 05:31:57;;;;;;;;;;;5.40;89.50;;;;;;5036147;28;20012;-76
2022/11/22 05:34:23;;;;;;;;;;;5.40;89.50;;;;;;5028202;28;19943;-75
2022/11/22 05:36:48;;;;;;;;;;;5.40;89.50;;;;;;5028644;28;19928;-77
2022/11/22 05:39:14;;;;;;;;;;;5.40;89.50;;;;;;5024306;28;19932;-76
2022/11/22 05:41:54;;;;;;;;;;;5.40;89.50;;;;;;5016677;28;19921;-75
2022/11/22 05:44:20;;;;;;;;;;;5.40;89.50;;;;;;5014918;28;20003;-76
2022/11/22 05:46:45;;;;;;;;;;;5.30;89.40;;;;;;5027745;28;19975;-76
2022/11/22 05:49:11;;;;;;;;;;;5.40;89.50;;;;;;4991891;28;19932;-76
2022/11/22 05:51:36;;;;;;;;;;;5.30;89.40;;;;;;5016619;28;19972;-75
2022/11/22 05:54:02;;;;;;;;;;;5.30;89.40;;;;;;5026215;28;19939;-75
2022/11/22 05:56:27;;;;;;;;;;;5.30;89.50;;;;;;5008507;28;20019;-74
2022/11/22 05:58:53;;;;;;;;;;;5.30;89.50;;;;;;5027922;28;19951;-75
2022/11/22 06:01:19;;;;;;;;;;;5.30;89.50;;;;;;5018969;28;20610;-76
2022/11/22 06:03:44;;;;;;;;;;;5.20;89.40;;;;;;5023198;28;19925;-75
2022/11/22 06:06:10;;;;;;;;;;;5.20;89.40;;;;;;5024194;28;19928;-76
2022/11/22 06:08:36;;;;;;;;;;;5.20;89.40;;;;;;5043799;28;19921;-75
2022/11/22 06:11:03;;;;;;;;;;;5.20;89.50;;;;;;4999812;28;20004;-77
2022/11/22 06:13:31;;;;;;;;;;;5.20;89.50;;;;;;5024149;28;20020;-76
2022/11/22 06:15:58;;;;;;;;;;;5.10;89.40;;;;;;5018475;28;19924;-76
2022/11/22 06:18:23;;;;;;;;;;;5.10;89.50;;;;;;5020893;28;19917;-77
2022/11/22 06:20:49;;;;;;;;;;;5.10;89.50;;;;;;5013899;28;19932;-76
2022/11/22 06:23:14;;;;;;;;;;;5.00;89.40;;;;;;5015797;28;19959;-77
2022/11/22 06:25:40;;;;;;;;;;;5.00;89.50;;;;;;5020670;28;20270;-75
2022/11/22 06:28:06;;;;;;;;;;;5.00;89.50;;;;;;5022155;28;19921;-75
2022/11/22 06:30:32;;;;;;;;;;;5.00;89.50;;;;;;5026334;28;20072;-75
2022/11/22 06:32:57;;;;;;;;;;;4.90;89.40;;;;;;5039332;28;20147;-75
2022/11/22 06:35:23;;;;;;;;;;;4.90;89.40;;;;;;5039318;28;19931;-76
2022/11/22 06:37:48;;;;;;;;;;;4.80;89.30;;;;;;5028972;28;19948;-76
2022/11/22 06:40:15;;;;;;;;;;;4.80;89.30;;;;;;5039029;28;20699;-75
2022/11/22 06:42:40;;;;;;;;;;;4.70;89.30;;;;;;5042784;28;19925;-75
2022/11/22 06:45:06;;;;;;;;;;;4.70;89.50;;;;;;5042528;28;20000;-75
2022/11/22 06:47:32;;;;;;;;;;;4.60;89.40;;;;;;5041171;28;20549;-76
2022/11/22 06:49:57;;;;;;;;;;;4.60;89.50;;;;;;5040832;28;19931;-76
2022/11/22 06:52:23;;;;;;;;;;;4.50;89.50;;;;;;5039579;28;19924;-76
2022/11/22 06:54:48;;;;;;;;;;;4.50;89.60;;;;;;5044346;28;19921;-77
2022/11/22 06:57:13;;;;;;;;;;;4.50;89.60;;;;;;5041498;28;19920;-76
2022/11/22 06:59:39;;;;;;;;;;;4.50;89.60;;;;;;5043863;28;19921;-75
2022/11/22 07:02:05;;;;;;;;;;;4.50;89.70;;;;;;5044503;28;20573;-76
2022/11/22 07:04:30;;;;;;;;;;;4.50;89.70;;;;;;5027821;28;19941;-76
2022/11/22 07:06:56;;;;;;;;;;;4.50;89.70;;;;;;5040127;28;19923;-76
2022/11/22 07:09:21;;;;;;;;;;;4.50;89.70;;;;;;5026789;28;19951;-76
2022/11/22 07:11:47;;;;;;;;;;;4.40;89.70;;;;;;5045542;28;20004;-76
2022/11/22 07:14:12;;;;;;;;;;;4.40;89.70;;;;;;5025459;28;19939;-74
2022/11/22 07:16:38;;;;;;;;;;;4.40;89.80;;;;;;5038706;28;20411;-75
2022/11/22 07:19:03;;;;;;;;;;;4.40;89.80;;;;;;5042988;28;20416;-76
2022/11/22 07:21:29;;;;;;;;;;;4.40;89.90;;;;;;5041349;28;19940;-76
2022/11/22 07:23:54;;;;;;;;;;;4.40;89.90;;;;;;5039875;28;19921;-76
2022/11/22 07:26:20;;;;;;;;;;;4.30;89.80;;;;;;5039148;28;19979;-76
2022/11/22 07:28:46;;;;;;;;;;;4.30;89.80;;;;;;5037553;28;20011;-76
2022/11/22 07:31:12;;;;;;;;;;;4.30;89.80;;;;;;5025873;28;19929;-74
2022/11/22 07:33:37;;;;;;;;;;;4.30;89.80;;;;;;5044212;28;19943;-76
2022/11/22 07:36:06;;;;;;;;;;;4.30;89.80;;;;;;5018438;28;19921;-76
2022/11/22 07:38:32;;;;;;;;;;;4.30;89.90;;;;;;5020396;28;20083;-76
2022/11/22 07:40:57;;;;;;;;;;;4.20;89.90;;;;;;5023293;28;20935;-76
2022/11/22 07:43:23;;;;;;;;;;;4.20;89.90;;;;;;5006853;28;19925;-75
2022/11/22 07:45:48;;;;;;;;;;;4.20;89.90;;;;;;5042100;28;19921;-76
2022/11/22 07:48:14;;;;;;;;;;;4.30;90.00;;;;;;5023552;28;19974;-76
2022/11/22 07:50:40;;;;;;;;;;;4.30;90.00;;;;;;5011717;28;19921;-76
2022/11/22 07:53:06;;;;;;;;;;;4.30;90.00;;;;;;5011905;28;20000;-76
2022/11/22 07:55:31;;;;;;;;;;;4.30;90.00;;;;;;5004608;28;19959;-75
2022/11/22 07:57:57;;;;;;;;;;;4.30;90.00;;;;;;5020289;28;19924;-75
2022/11/22 08:00:22;;;;;;;;;;;4.30;90.00;;;;;;5023828;28;19984;-77
2022/11/22 08:02:48;;;;;;;;;;;4.30;90.00;;;;;;5020845;28;19921;-76
2022/11/22 08:05:13;;;;;;;;;;;4.40;90.00;;;;;;5022587;28;19921;-77
2022/11/22 08:07:44;;;;;;;;;;;4.30;90.00;;;;;;5020022;28;19929;-75
2022/11/22 08:10:09;;;;;;;;;;;4.40;90.00;;;;;;5021524;28;19921;-76
2022/11/22 08:12:35;;;;;;;;;;;4.40;90.00;;;;;;5023908;28;19916;-76
2022/11/22 08:15:00;;;;;;;;;;;4.40;90.00;;;;;;5041607;28;19932;-75
2022/11/22 08:17:26;;;;;;;;;;;4.40;90.00;;;;;;5013985;28;19924;-75
2022/11/22 08:19:52;;;;;;;;;;;4.50;90.00;;;;;;5021823;28;20513;-76
2022/11/22 08:22:17;;;;;;;;;;;4.50;90.00;;;;;;5017418;28;20238;-76
2022/11/22 08:24:43;;;;;;;;;;;4.50;90.00;;;;;;5025619;28;19952;-76
2022/11/22 08:27:08;;;;;;;;;;;4.50;90.00;;;;;;5016083;28;19925;-74
2022/11/22 08:29:34;;;;;;;;;;;4.50;90.00;;;;;;5016159;28;19917;-76
2022/11/22 08:31:59;;;;;;;;;;;4.50;90.00;;;;;;5044773;28;19925;-77
2022/11/22 08:34:25;;;;;;;;;;;4.50;90.00;;;;;;5018182;28;19952;-76
2022/11/22 08:36:50;;;;;;;;;;;4.50;90.00;;;;;;5020670;28;19913;-76
2022/11/22 08:39:16;;;;;;;;;;;4.60;90.00;;;;;;5024610;28;19956;-75
2022/11/22 08:41:41;;;;;;;;;;;4.60;90.00;;;;;;5007493;28;19921;-75
2022/11/22 08:44:06;;;;;;;;;;;4.60;90.00;;;;;;5012538;28;19952;-77
2022/11/22 08:46:32;;;;;;;;;;;4.60;90.00;;;;;;5042073;28;19917;-77
2022/11/22 08:48:57;;;;;;;;;;;4.60;90.30;;;;;;5009368;28;19929;-75
2022/11/22 08:51:23;;;;;;;;;;;4.70;90.00;;;;;;5028713;28;19928;-76
2022/11/22 08:53:48;;;;;;;;;;;4.70;90.00;;;;;;5012298;28;19931;-76
2022/11/22 08:56:14;;;;;;;;;;;4.70;90.00;;;;;;5014394;28;19928;-76
2022/11/22 08:58:40;;;;;;;;;;;4.70;90.00;;;;;;5026272;28;19917;-76
2022/11/22 09:01:06;;;;;;;;;;;4.80;90.00;;;;;;4998999;28;19925;-77
2022/11/22 09:03:32;;;;;;;;;;;4.80;90.00;;;;;;5019645;28;19917;-77
2022/11/22 09:06:04;;;;;;;;;;;4.90;90.00;;;;;;5012012;28;19929;-76
2022/11/22 09:08:30;;;;;;;;;;;4.90;90.00;;;;;;5028248;28;19921;-76
2022/11/22 09:10:58;;;;;;;;;;;4.90;89.90;;;;;;5002899;28;20229;-76
2022/11/22 09:13:24;;;;;;;;;;;5.00;90.00;;;;;;5019337;28;19974;-75
2022/11/22 09:15:49;;;;;;;;;;;5.00;89.90;;;;;;5000855;28;19929;-76
2022/11/22 09:18:15;;;;;;;;;;;5.00;89.90;;;;;;5028665;28;19921;-76
2022/11/22 09:20:40;;;;;;;;;;;5.10;89.90;;;;;;5031065;28;19921;-75
2022/11/22 09:23:06;;;;;;;;;;;5.10;89.90;;;;;;5042833;28;19943;-76
2022/11/22 09:25:31;;;;;;;;;;;5.20;89.90;;;;;;5028207;28;19943;-75
2022/11/22 09:28:01;;;;;;;;;;;5.20;89.80;;;;;;5028497;28;19924;-77
2022/11/22 09:30:27;;;;;;;;;;;5.20;89.80;;;;;;5046963;28;19921;-76
2022/11/22 09:32:53;;;;;;;;;;;5.30;89.80;;;;;;5027424;28;19928;-75
2022/11/22 09:35:19;;;;;;;;;;;5.30;89.80;;;;;;5030611;28;20008;-75
2022/11/22 09:37:44;;;;;;;;;;;5.40;89.80;;;;;;5039173;28;19929;-76
2022/11/22 09:40:10;;;;;;;;;;;5.40;89.70;;;;;;5029176;28;19921;-75
2022/11/22 09:42:48;;;;;;;;;;;5.50;89.80;;;;;;5040702;28;20036;-76
2022/11/22 09:45:24;;;;;;;;;;;5.50;90.20;;;;;;5043535;28;19929;-74
2022/11/22 09:47:55;;;;;;;;;;;5.60;89.70;;;;;;5047507;28;19966;-75
2022/11/22 09:50:33;;;;;;;;;;;5.60;89.70;;;;;;5044066;28;19928;-76
2022/11/22 09:53:02;;;;;;;;;;;5.60;90.20;;;;;;5041162;28;19925;-76
2022/11/22 09:55:40;;;;;;;;;;;5.70;89.60;;;;;;5040040;28;19917;-75
2022/11/22 09:58:10;;;;;;;;;;;5.70;89.60;;;;;;5040380;28;20011;-77
2022/11/22 10:00:36;;;;;;;;;;;5.80;89.60;;;;;;5023589;28;19952;-76
2022/11/22 10:03:20;;;;;;;;;;;5.80;89.60;;;;;;5035769;28;19940;-75
2022/11/22 10:05:48;;;;;;;;;;;5.90;89.50;;;;;;5032256;28;19917;-75
2022/11/22 10:08:16;;;;;;;;;;;6.00;89.50;;;;;;5043512;28;20039;-75
2022/11/22 10:10:42;;;;;;;;;;;6.00;89.50;;;;;;5042804;28;19971;-75
2022/11/22 10:13:12;;;;;;;;;;;6.00;89.50;;;;;;5028581;28;19914;-75
2022/11/22 10:15:43;;;;;;;;;;;6.10;89.50;;;;;;5041900;28;19928;-77
2022/11/22 10:18:23;;;;;;;;;;;6.10;89.40;;;;;;5045562;28;19916;-75
2022/11/22 10:20:48;;;;;;;;;;;6.20;89.50;;;;;;5043457;28;19921;-72
2022/11/22 10:23:15;;;;;;;;;;;6.30;89.70;;;;;;5051245;28;19931;-76
2022/11/22 10:25:50;;;;;;;;;;;6.40;89.60;;;;;;5016194;28;19924;-74
2022/11/22 10:28:16;;;;;;;;;;;6.40;89.40;;;;;;5043767;28;19913;-75
2022/11/22 10:30:43;;;;;;;;;;;6.50;89.40;;;;;;5053966;28;19913;-75
2022/11/22 10:33:12;;;;;;;;;;;6.50;89.40;;;;;;5052130;28;19913;-74
2022/11/22 10:35:43;;;;;;;;;;;6.60;89.40;;;;;;5025827;28;19940;-77
2022/11/22 10:38:27;;;;;;;;;;;6.70;89.40;;;;;;5050603;28;19948;-75
2022/11/22 10:41:04;;;;;;;;;;;6.70;89.30;;;;;;5053777;28;19921;-74
2022/11/22 10:43:30;;;;;;;;;;;6.70;89.30;;;;;;5036537;28;19964;-75
2022/11/22 10:46:00;;;;;;;;;;;6.80;89.30;;;;;;5029053;28;19917;-75
2022/11/22 10:48:26;;;;;;;;;;;6.80;89.30;;;;;;5009349;28;20409;-76
2022/11/22 10:50:51;;;;;;;;;;;6.90;89.20;;;;;;5038210;28;19938;-75
2022/11/22 10:53:17;;;;;;;;;;;7.00;89.10;;;;;;5034235;28;19949;-76
2022/11/22 10:55:45;;;;;;;;;;;7.10;89.10;;;;;;5013002;28;19956;-76
2022/11/22 10:58:13;;;;;;;;;;;7.20;89.00;;;;;;5022320;28;20581;-75
2022/11/22 11:00:39;;;;;;;;;;;7.20;88.90;;;;;;5020521;28;19960;-75
2022/11/22 11:03:08;;;;;;;;;;;7.20;89.00;;;;;;5017998;28;19917;-76
2022/11/22 11:05:45;;;;;;;;;;;7.30;88.90;;;;;;5025812;28;19917;-75
2022/11/22 11:08:12;;;;;;;;;;;7.30;88.80;;;;;;5016993;28;19956;-76
2022/11/22 11:10:38;;;;;;;;;;;7.30;88.80;;;;;;5033310;28;19917;-75
2022/11/22 11:13:13;;;;;;;;;;;7.40;88.80;;;;;;5017521;28;19935;-75
2022/11/22 11:15:42;;;;;;;;;;;7.40;88.80;;;;;;4998973;28;19921;-75
2022/11/22 11:18:15;;;;;;;;;;;7.50;88.80;;;;;;5009170;28;19920;-75
2022/11/22 11:20:40;;;;;;;;;;;7.50;88.70;;;;;;5016178;28;19929;-75
2022/11/22 11:23:07;;;;;;;;;;;7.60;88.70;;;;;;5041862;28;19917;-75
2022/11/22 11:25:33;;;;;;;;;;;7.60;88.70;;;;;;4995998;28;19921;-75
2022/11/22 11:28:03;;;;;;;;;;;7.70;88.70;;;;;;5019571;28;19927;-75
2022/11/22 11:30:35;;;;;;;;;;;7.70;88.60;;;;;;5000829;28;20033;-76
2022/11/22 11:33:00;;;;;;;;;;;7.80;88.60;;;;;;5028609;28;20507;-75
2022/11/22 11:35:26;;;;;;;;;;;7.80;88.60;;;;;;5034555;28;19924;-76
2022/11/22 11:37:51;;;;;;;;;;;7.90;88.60;;;;;;5036572;28;20302;-75
2022/11/22 11:40:27;;;;;;;;;;;7.90;88.50;;;;;;5035815;28;19932;-77
2022/11/22 11:43:13;;;;;;;;;;;8.00;88.50;;;;;;5035551;28;19951;-76
2022/11/22 11:45:39;;;;;;;;;;;8.00;88.40;;;;;;5039061;28;19920;-75
2022/11/22 11:48:11;;;;;;;;;;;8.10;88.30;;;;;;5021911;28;19917;-77
2022/11/22 11:50:36;;;;;;;;;;;8.10;88.30;;;;;;5040098;28;19917;-76
2022/11/22 11:53:02;;;;;;;;;;;8.20;88.30;;;;;;5041490;28;19923;-75
2022/11/22 11:55:33;;;;;;;;;;;8.20;88.30;;;;;;5035579;28;19925;-77
2022/11/22 11:57:58;;;;;;;;;;;8.30;88.30;;;;;;5038293;28;20086;-76
2022/11/22 12:00:25;;;;;;;;;;;8.30;88.20;;;;;;5039522;28;20014;-74
2022/11/22 12:02:54;;;;;;;;;;;8.30;88.10;;;;;;5028302;28;20021;-75
2022/11/22 12:05:20;;;;;;;;;;;8.40;88.10;;;;;;5039890;28;19917;-76
2022/11/22 12:07:46;;;;;;;;;;;8.40;88.00;;;;;;5044242;28;19927;-74
2022/11/22 12:10:30;;;;;;;;;;;8.40;88.00;;;;;;5038436;28;19925;-75
2022/11/22 12:13:00;;;;;;;;;;;8.50;88.00;;;;;;5044419;28;19924;-76
2022/11/22 12:15:47;;;;;;;;;;;8.50;87.90;;;;;;5028257;28;20004;-76
2022/11/22 12:18:25;;;;;;;;;;;8.50;87.90;;;;;;5043733;28;19916;-77
2022/11/22 12:20:56;;;;;;;;;;;8.60;87.90;;;;;;5045576;28;19929;-76
2022/11/22 12:23:23;;;;;;;;;;;8.60;87.80;;;;;;5041953;28;19916;-76
2022/11/22 12:25:49;;;;;;;;;;;8.60;87.80;;;;;;5038770;28;19948;-75
2022/11/22 12:28:18;;;;;;;;;;;8.70;87.90;;;;;;5041448;28;20314;-76
2022/11/22 12:30:44;;;;;;;;;;;8.70;87.80;;;;;;5023050;28;19924;-75
2022/11/22 12:33:13;;;;;;;;;;;8.80;87.70;;;;;;5038852;28;19939;-75
2022/11/22 12:35:41;;;;;;;;;;;8.80;87.60;;;;;;5039306;28;19921;-75
2022/11/22 12:38:10;;;;;;;;;;;8.80;87.60;;;;;;5045010;28;20543;-74
2022/11/22 12:40:40;;;;;;;;;;;8.80;87.50;;;;;;5042479;28;20007;-77
2022/11/22 12:43:44;;;;;;;;;;;8.80;87.50;;;;;;5040613;28;19967;-76
2022/11/22 12:46:10;;;;;;;;;;;8.80;87.40;;;;;;5003898;28;19924;-76
2022/11/22 12:48:44;;;;;;;;;;;8.80;87.30;;;;;;4969953;28;19945;-77
2022/11/22 12:51:14;;;;;;;;;;;8.80;87.40;;;;;;5001184;28;19929;-76
2022/11/22 12:53:40;;;;;;;;;;;8.80;87.50;;;;;;4985463;28;19922;-75
2022/11/22 12:56:09;;;;;;;;;;;8.90;87.50;;;;;;4984742;28;19932;-75
2022/11/22 12:58:37;;;;;;;;;;;8.90;87.60;;;;;;5003549;28;19922;-75
2022/11/22 13:01:08;;;;;;;;;;;9.00;87.70;;;;;;5005494;28;19988;-76
2022/11/22 13:03:59;;;;;;;;;;;9.00;87.70;;;;;;4956544;28;20012;-76
2022/11/22 13:06:26;;;;;;;;;;;9.10;87.60;;;;;;4999123;28;19925;-74
2022/11/22 13:08:54;;;;;;;;;;;9.10;87.60;;;;;;4985441;28;19925;-75
2022/11/22 13:11:35;;;;;;;;;;;9.20;87.60;;;;;;4982752;28;19925;-76
2022/11/22 13:14:09;;;;;;;;;;;9.30;87.50;;;;;;4996949;28;19965;-75
2022/11/22 13:16:34;;;;;;;;;;;9.30;88.10;;;;;;5001821;28;20004;-77
2022/11/22 13:19:01;;;;;;;;;;;9.30;87.20;;;;;;5038629;28;19984;-76
2022/11/22 13:21:39;;;;;;;;;;;9.30;87.20;;;;;;5038954;28;19935;-75
2022/11/22 13:24:13;;;;;;;;;;;9.30;87.20;;;;;;5043839;28;19921;-75
2022/11/22 13:26:41;;;;;;;;;;;9.20;87.10;;;;;;5038388;28;20475;-75
2022/11/22 13:29:17;;;;;;;;;;;9.20;87.10;;;;;;5037781;28;20071;-77
2022/11/22 13:32:02;;;;;;;;;;;9.20;87.10;;;;;;5036149;28;19929;-76
2022/11/22 13:34:27;;;;;;;;;;;9.20;87.10;;;;;;5039094;28;20040;-76
2022/11/22 13:36:53;;;;;;;;;;;9.20;87.10;;;;;;5046398;28;19944;-76
2022/11/22 13:39:19;;;;;;;;;;;9.20;87.10;;;;;;5037961;28;19924;-76
2022/11/22 13:41:44;;;;;;;;;;;9.20;87.10;;;;;;5026878;28;20359;-75
2022/11/22 13:44:22;;;;;;;;;;;9.20;87.10;;;;;;5040407;28;19917;-75
2022/11/22 13:46:48;;;;;;;;;;;9.10;87.00;;;;;;5015837;28;19917;-74
2022/11/22 13:49:14;;;;;;;;;;;9.10;87.00;;;;;;5042417;28;19986;-76
2022/11/22 13:51:50;;;;;;;;;;;9.10;87.10;;;;;;5041746;28;20453;-75
2022/11/22 13:54:32;;;;;;;;;;;9.00;87.00;;;;;;5033510;28;19917;-77
2022/11/22 13:56:58;;;;;;;;;;;9.00;87.10;;;;;;5036354;28;19936;-76
2022/11/22 13:59:24;;;;;;;;;;;9.00;87.10;;;;;;5039991;28;19920;-75
2022/11/22 14:01:50;;;;;;;;;;;9.00;87.10;;;;;;5030313;28;19924;-75
2022/11/22 14:04:16;;;;;;;;;;;8.90;87.00;;;;;;5040199;28;19917;-76
2022/11/22 14:06:51;;;;;;;;;;;8.90;87.10;;;;;;5037433;28;19943;-76
2022/11/22 14:09:35;;;;;;;;;;;8.90;87.10;;;;;;5038097;28;19920;-76
2022/11/22 14:12:01;;;;;;;;;;;8.90;87.10;;;;;;5054138;28;19929;-76
2022/11/22 14:14:50;;;;;;;;;;;8.90;87.10;;;;;;5033724;28;20054;-75
2022/11/22 14:17:34;;;;;;;;;;;8.90;87.10;;;;;;5034090;28;19925;-75
2022/11/22 14:20:01;;;;;;;;;;;8.90;87.10;;;;;;5036828;28;19929;-77
2022/11/22 14:22:30;;;;;;;;;;;8.90;87.20;;;;;;5035959;28;20606;-76
2022/11/22 14:25:04;;;;;;;;;;;8.80;87.10;;;;;;5038750;28;19920;-76
2022/11/22 14:27:40;;;;;;;;;;;8.80;87.10;;;;;;5021158;28;20004;-76
2022/11/22 14:30:06;;;;;;;;;;;8.80;87.10;;;;;;5037953;28;19925;-77
2022/11/22 14:32:48;;;;;;;;;;;8.80;87.10;;;;;;5038523;28;20419;-76
2022/11/22 14:35:21;;;;;;;;;;;8.80;87.20;;;;;;5022750;28;20015;-75
2022/11/22 14:37:47;;;;;;;;;;;8.80;87.20;;;;;;5004438;28;20401;-75
2022/11/22 14:40:13;;;;;;;;;;;8.70;87.10;;;;;;5032842;28;19921;-74
2022/11/22 14:42:41;;;;;;;;;;;8.70;87.10;;;;;;5024137;28;19916;-75